Time;durP1;ratioP1;P1;durP2;ratioP2;P2;SDS_P1;SDS_P2;PMS_P1;PMS_P2;Temp;Humidity;BMP_temperature;BMP_pressure;BME280_temperature;BME280_humidity;BME280_pressure;Samples;Min_cycle;Max_cycle;Signal;HPM_P1;HPM_P2
2024/01/31 00:02:06;;;;;;;7.30;5.87;;;6.00;10.80;;;;;;4995013;28;20177;-71
2024/01/31 00:04:31;;;;;;;10.30;6.80;;;6.00;11.10;;;;;;4995081;28;20177;-69
2024/01/31 00:06:57;;;;;;;12.03;7.50;;;5.90;11.60;;;;;;4994899;28;20187;-70
2024/01/31 00:09:22;;;;;;;10.07;7.50;;;5.90;12.20;;;;;;4994714;28;20220;-70
2024/01/31 00:11:48;;;;;;;12.97;7.87;;;6.00;11.70;;;;;;4995072;28;20700;-70
2024/01/31 00:14:16;;;;;;;9.30;6.63;;;5.90;11.10;;;;;;4995007;28;20192;-70
2024/01/31 00:16:43;;;;;;;10.17;7.30;;;5.80;11.90;;;;;;4994696;28;20215;-70
2024/01/31 00:19:08;;;;;;;8.00;7.17;;;5.70;12.50;;;;;;4994684;28;20451;-70
2024/01/31 00:21:34;;;;;;;10.43;6.73;;;5.70;12.90;;;;;;4994927;28;20938;-70
2024/01/31 00:23:59;;;;;;;8.43;6.97;;;5.70;13.10;;;;;;4993584;28;20191;-70
2024/01/31 00:26:25;;;;;;;7.60;6.67;;;5.70;13.00;;;;;;4994524;28;20173;-70
2024/01/31 00:28:51;;;;;;;10.73;7.17;;;5.80;12.10;;;;;;4994452;28;20189;-70
2024/01/31 00:31:17;;;;;;;9.43;7.37;;;5.80;12.70;;;;;;4994700;28;20408;-69
2024/01/31 00:33:43;;;;;;;11.00;6.73;;;5.90;12.20;;;;;;4994558;28;20532;-69
2024/01/31 00:36:08;;;;;;;7.73;6.17;;;6.10;11.40;;;;;;4993079;28;20511;-69
2024/01/31 00:38:34;;;;;;;8.93;7.17;;;6.20;10.50;;;;;;4994318;28;20291;-69
2024/01/31 00:41:00;;;;;;;10.13;7.27;;;6.30;10.50;;;;;;4994432;28;20655;-69
2024/01/31 00:43:25;;;;;;;9.03;7.53;;;6.40;9.50;;;;;;4994386;28;20174;-70
2024/01/31 00:45:51;;;;;;;9.67;7.00;;;6.40;9.50;;;;;;4994279;28;20208;-70
2024/01/31 00:48:16;;;;;;;8.67;7.57;;;6.50;9.60;;;;;;4994509;28;20230;-69
2024/01/31 00:50:42;;;;;;;7.70;6.20;;;6.50;8.80;;;;;;4994526;28;20189;-68
2024/01/31 00:53:07;;;;;;;8.43;6.80;;;6.60;8.20;;;;;;4993236;28;20206;-70
2024/01/31 00:55:33;;;;;;;11.20;6.73;;;6.60;8.20;;;;;;4993047;28;20177;-69
2024/01/31 00:57:58;;;;;;;10.10;7.47;;;6.70;8.30;;;;;;4994473;28;20370;-70
2024/01/31 01:00:25;;;;;;;8.90;6.67;;;6.70;8.30;;;;;;4994748;28;20256;-69
2024/01/31 01:02:51;;;;;;;11.87;7.90;;;6.80;7.60;;;;;;4992988;28;20181;-71
2024/01/31 01:05:17;;;;;;;9.30;6.93;;;6.80;7.20;;;;;;4993271;28;20411;-69
2024/01/31 01:07:45;;;;;;;9.50;6.67;;;6.90;7.30;;;;;;4993601;28;20239;-70
2024/01/31 01:10:15;;;;;;;8.03;5.93;;;6.90;7.30;;;;;;4994064;28;20201;-69
2024/01/31 01:12:42;;;;;;;10.13;5.97;;;6.90;7.30;;;;;;4995336;28;20817;-69
2024/01/31 01:15:08;;;;;;;11.13;7.27;;;6.90;6.20;;;;;;4993477;28;20428;-68
2024/01/31 01:17:35;;;;;;;13.10;7.33;;;7.00;6.00;;;;;;4995261;28;20459;-69
2024/01/31 01:20:00;;;;;;;10.87;7.20;;;6.90;5.80;;;;;;4994268;28;20418;-69
2024/01/31 01:22:28;;;;;;;9.60;6.13;;;6.90;6.40;;;;;;4994215;28;20443;-68
2024/01/31 01:24:54;;;;;;;12.20;6.70;;;6.90;6.00;;;;;;4993635;28;20265;-69
2024/01/31 01:27:19;;;;;;;9.13;6.50;;;6.90;6.20;;;;;;4992437;28;20638;-69
2024/01/31 01:29:45;;;;;;;9.40;7.13;;;6.90;6.70;;;;;;4996521;28;20190;-69
2024/01/31 01:32:10;;;;;;;9.87;7.07;;;6.80;7.30;;;;;;4996036;28;20179;-69
2024/01/31 01:34:40;;;;;;;10.90;6.93;;;6.90;7.80;;;;;;4994194;28;20305;-69
2024/01/31 01:37:06;;;;;;;8.73;6.50;;;6.90;7.50;;;;;;4993331;28;20233;-69
2024/01/31 01:39:31;;;;;;;11.53;7.80;;;6.90;6.80;;;;;;4993220;28;20775;-69
2024/01/31 01:41:57;;;;;;;13.43;7.90;;;6.90;6.10;;;;;;4993295;28;20210;-69
2024/01/31 01:44:22;;;;;;;10.50;7.70;;;6.90;7.40;;;;;;4992057;28;20191;-71
2024/01/31 01:46:48;;;;;;;10.43;7.17;;;6.90;6.70;;;;;;4993124;28;20268;-70
2024/01/31 01:49:14;;;;;;;10.37;7.27;;;6.90;6.70;;;;;;4993050;28;20379;-69
2024/01/31 01:51:41;;;;;;;9.23;6.87;;;7.00;6.10;;;;;;4993150;28;20194;-73
2024/01/31 01:54:12;;;;;;;11.67;7.50;;;7.00;5.90;;;;;;4993061;28;20206;-69
2024/01/31 01:56:41;;;;;;;7.60;5.50;;;7.00;6.50;;;;;;4993050;28;20908;-68
2024/01/31 01:59:07;;;;;;;12.13;8.30;;;7.00;6.30;;;;;;4993075;28;20442;-68
2024/01/31 02:01:33;;;;;;;9.00;7.23;;;7.00;6.10;;;;;;4992993;28;20921;-69
2024/01/31 02:03:59;;;;;;;12.00;7.50;;;7.00;6.10;;;;;;4993021;28;20483;-69
2024/01/31 02:06:25;;;;;;;11.83;7.73;;;7.00;6.10;;;;;;4992819;28;20613;-69
2024/01/31 02:08:51;;;;;;;8.37;6.83;;;6.90;6.40;;;;;;4992798;28;20530;-68
2024/01/31 02:11:17;;;;;;;11.00;6.77;;;6.90;7.30;;;;;;4992780;28;20415;-69
2024/01/31 02:13:42;;;;;;;10.80;7.60;;;6.80;8.00;;;;;;4992705;28;20515;-68
2024/01/31 02:16:08;;;;;;;9.13;7.73;;;6.80;8.40;;;;;;4992377;28;20173;-69
2024/01/31 02:18:33;;;;;;;9.70;7.13;;;6.80;8.40;;;;;;4992308;28;20213;-69
2024/01/31 02:20:59;;;;;;;9.33;6.03;;;6.80;8.40;;;;;;4992610;28;20185;-69
2024/01/31 02:23:24;;;;;;;10.20;7.00;;;6.80;8.30;;;;;;4992489;28;20544;-69
2024/01/31 02:25:50;;;;;;;7.93;6.63;;;6.80;8.40;;;;;;4992426;28;20184;-69
2024/01/31 02:28:16;;;;;;;10.37;7.73;;;6.90;8.20;;;;;;4992397;28;20197;-69
2024/01/31 02:30:41;;;;;;;8.27;6.47;;;6.80;8.40;;;;;;4992332;28;20581;-69
2024/01/31 02:33:07;;;;;;;8.90;6.20;;;6.90;8.40;;;;;;4991037;28;20178;-69
2024/01/31 02:35:34;;;;;;;8.60;7.63;;;7.00;8.50;;;;;;4992342;28;20180;-68
2024/01/31 02:38:02;;;;;;;10.17;7.03;;;7.00;7.10;;;;;;4992354;28;20252;-68
2024/01/31 02:40:29;;;;;;;7.73;6.53;;;7.00;6.30;;;;;;4990981;28;20475;-68
2024/01/31 02:42:56;;;;;;;9.43;6.80;;;7.10;6.40;;;;;;4992341;28;20962;-68
2024/01/31 02:45:21;;;;;;;8.47;6.50;;;7.20;6.10;;;;;;4992172;28;20455;-68
2024/01/31 02:47:47;;;;;;;11.63;7.40;;;7.20;5.40;;;;;;4992141;28;20474;-68
2024/01/31 02:50:12;;;;;;;8.57;6.03;;;7.10;6.00;;;;;;4992082;28;20190;-68
2024/01/31 02:52:38;;;;;;;8.50;6.10;;;7.20;6.10;;;;;;4992304;28;20185;-69
2024/01/31 02:55:04;;;;;;;8.20;6.10;;;7.20;5.50;;;;;;4992616;28;20614;-68
2024/01/31 02:57:30;;;;;;;9.00;7.17;;;7.20;5.20;;;;;;4991810;28;20281;-68
2024/01/31 02:59:55;;;;;;;10.53;7.07;;;7.20;5.20;;;;;;4992046;28;20423;-69
2024/01/31 03:02:21;;;;;;;10.73;6.30;;;7.20;5.20;;;;;;4991936;28;20179;-69
2024/01/31 03:04:46;;;;;;;7.90;5.77;;;7.20;5.00;;;;;;4992235;28;20254;-69
2024/01/31 03:07:12;;;;;;;9.87;6.17;;;7.20;4.70;;;;;;4991744;28;20270;-69
2024/01/31 03:09:38;;;;;;;10.87;6.63;;;7.20;5.00;;;;;;4991664;28;20209;-69
2024/01/31 03:12:06;;;;;;;9.50;6.50;;;7.20;4.30;;;;;;4990760;28;20200;-69
2024/01/31 03:14:33;;;;;;;8.67;6.57;;;7.10;4.80;;;;;;4991759;28;20426;-69
2024/01/31 03:16:58;;;;;;;8.30;6.93;;;7.10;5.10;;;;;;4991635;28;20460;-68
2024/01/31 03:19:29;;;;;;;9.87;7.43;;;7.00;5.40;;;;;;4990405;28;20448;-69
2024/01/31 03:21:55;;;;;;;8.83;5.57;;;7.00;5.90;;;;;;4991904;28;20583;-69
2024/01/31 03:24:23;;;;;;;11.83;6.33;;;6.90;6.00;;;;;;4991881;28;20760;-68
2024/01/31 03:26:49;;;;;;;9.37;6.70;;;6.90;6.50;;;;;;4991648;28;20509;-68
2024/01/31 03:29:15;;;;;;;10.07;7.30;;;6.90;7.00;;;;;;4992635;28;20525;-70
2024/01/31 03:31:40;;;;;;;10.40;6.93;;;6.90;7.00;;;;;;4996397;28;20595;-68
2024/01/31 03:34:06;;;;;;;6.83;5.57;;;6.80;6.60;;;;;;4996244;28;20224;-70
2024/01/31 03:36:35;;;;;;;9.07;6.40;;;6.90;7.20;;;;;;4995362;28;20239;-69
2024/01/31 03:39:01;;;;;;;10.97;7.70;;;7.00;6.50;;;;;;4995559;28;20202;-69
2024/01/31 03:41:28;;;;;;;7.57;6.03;;;7.00;6.50;;;;;;4995684;28;20431;-70
2024/01/31 03:43:54;;;;;;;10.07;6.20;;;7.00;6.50;;;;;;4995614;28;20182;-69
2024/01/31 03:46:20;;;;;;;8.03;6.53;;;7.00;6.30;;;;;;4995380;28;20411;-69
2024/01/31 03:48:45;;;;;;;9.40;6.27;;;7.00;6.20;;;;;;4995320;28;20495;-69
2024/01/31 03:51:21;;;;;;;9.17;6.37;;;7.10;6.00;;;;;;4995406;28;20432;-69
2024/01/31 03:53:48;;;;;;;10.07;6.20;;;7.00;5.80;;;;;;4995432;28;20209;-69
2024/01/31 03:56:14;;;;;;;9.10;6.00;;;6.90;6.30;;;;;;4995047;28;20488;-68
2024/01/31 03:58:40;;;;;;;11.33;6.87;;;6.90;6.40;;;;;;4995083;28;20874;-68
2024/01/31 04:01:06;;;;;;;8.67;6.53;;;6.90;6.40;;;;;;4995230;28;20637;-68
2024/01/31 04:03:32;;;;;;;10.70;5.93;;;6.90;6.30;;;;;;4995332;28;20425;-69
2024/01/31 04:05:57;;;;;;;10.63;6.10;;;6.90;6.30;;;;;;4995077;28;20606;-68
2024/01/31 04:08:23;;;;;;;9.03;7.77;;;6.90;6.40;;;;;;4995253;28;20214;-68
2024/01/31 04:10:49;;;;;;;10.00;6.43;;;6.80;6.60;;;;;;4995086;28;20242;-68
2024/01/31 04:13:14;;;;;;;7.77;5.30;;;6.80;6.60;;;;;;4995483;28;20237;-68
2024/01/31 04:15:40;;;;;;;8.20;6.37;;;6.70;6.80;;;;;;4993459;28;20732;-69
2024/01/31 04:18:07;;;;;;;8.50;5.63;;;6.70;7.00;;;;;;4994842;28;20253;-69
2024/01/31 04:20:39;;;;;;;10.50;6.77;;;6.70;7.20;;;;;;4994880;28;20219;-69
2024/01/31 04:23:08;;;;;;;7.00;5.83;;;6.60;7.20;;;;;;4994890;28;20445;-68
2024/01/31 04:25:34;;;;;;;8.30;5.67;;;6.60;8.30;;;;;;4994682;28;20507;-69
2024/01/31 04:28:00;;;;;;;10.37;7.17;;;6.60;8.30;;;;;;4994934;28;21052;-69
2024/01/31 04:30:26;;;;;;;7.90;6.00;;;6.60;8.20;;;;;;4994866;28;20512;-69
2024/01/31 04:32:52;;;;;;;9.90;5.90;;;6.50;8.20;;;;;;4994909;28;20261;-69
2024/01/31 04:35:17;;;;;;;8.20;6.80;;;6.40;8.60;;;;;;4994621;28;20842;-68
2024/01/31 04:37:43;;;;;;;10.43;6.23;;;6.50;9.00;;;;;;4994690;28;20610;-69
2024/01/31 04:40:09;;;;;;;12.00;7.60;;;6.50;8.80;;;;;;4994268;28;20187;-69
2024/01/31 04:42:35;;;;;;;12.00;7.77;;;6.50;9.00;;;;;;4994695;28;20607;-69
2024/01/31 04:45:01;;;;;;;8.93;6.90;;;6.50;9.30;;;;;;4994743;28;20476;-68
2024/01/31 04:47:27;;;;;;;12.17;8.60;;;6.40;9.90;;;;;;4994388;28;20421;-68
2024/01/31 04:49:55;;;;;;;6.50;5.40;;;6.50;10.30;;;;;;4994418;28;20977;-69
2024/01/31 04:52:21;;;;;;;9.03;7.20;;;6.50;10.20;;;;;;4994314;28;20594;-68
2024/01/31 04:54:46;;;;;;;9.90;7.37;;;6.60;9.40;;;;;;4994658;28;20417;-68
2024/01/31 04:57:11;;;;;;;11.07;7.00;;;6.70;9.20;;;;;;4994240;28;20209;-69
2024/01/31 04:59:38;;;;;;;11.20;7.37;;;6.70;8.70;;;;;;4994227;28;20193;-69
2024/01/31 05:02:05;;;;;;;10.60;6.27;;;6.70;9.30;;;;;;4994228;28;20184;-68
2024/01/31 05:04:30;;;;;;;9.57;6.30;;;6.80;8.40;;;;;;4994368;28;20601;-68
2024/01/31 05:06:56;;;;;;;9.17;6.73;;;6.80;8.40;;;;;;4993968;28;20449;-68
2024/01/31 05:09:21;;;;;;;7.93;5.83;;;6.90;8.20;;;;;;4993969;28;20214;-70
2024/01/31 05:11:50;;;;;;;6.87;5.67;;;6.90;8.30;;;;;;4994401;28;20698;-70
2024/01/31 05:14:16;;;;;;;8.67;6.90;;;6.90;7.90;;;;;;4994328;28;20196;-69
2024/01/31 05:16:42;;;;;;;7.43;5.80;;;7.00;6.70;;;;;;4994038;28;20445;-70
2024/01/31 05:19:11;;;;;;;8.13;5.53;;;7.00;6.90;;;;;;4993782;28;20441;-69
2024/01/31 05:21:52;;;;;;;7.57;6.20;;;6.90;7.40;;;;;;4994301;28;20562;-69
2024/01/31 05:24:19;;;;;;;12.40;6.87;;;7.00;7.30;;;;;;4994188;28;20467;-69
2024/01/31 05:26:46;;;;;;;8.03;5.70;;;7.00;6.80;;;;;;4993583;28;20417;-69
2024/01/31 05:29:12;;;;;;;7.20;6.07;;;7.00;7.00;;;;;;4993607;28;20936;-70
2024/01/31 05:31:37;;;;;;;9.43;7.10;;;7.00;7.00;;;;;;4993652;28;20408;-68
2024/01/31 05:34:03;;;;;;;9.83;6.73;;;7.00;7.20;;;;;;4993665;28;20197;-68
2024/01/31 05:36:29;;;;;;;11.27;7.60;;;7.00;7.10;;;;;;4993112;28;20178;-69
2024/01/31 05:38:55;;;;;;;8.33;7.40;;;7.00;7.00;;;;;;4993407;28;20234;-69
2024/01/31 05:41:20;;;;;;;9.50;6.30;;;7.10;6.90;;;;;;4993244;28;20179;-69
2024/01/31 05:43:46;;;;;;;8.10;6.83;;;7.10;6.70;;;;;;4993310;28;20187;-68
2024/01/31 05:46:15;;;;;;;10.13;6.53;;;7.20;5.60;;;;;;4993004;28;20387;-69
2024/01/31 05:48:42;;;;;;;7.20;5.80;;;7.10;6.40;;;;;;4992870;28;20210;-68
2024/01/31 05:51:07;;;;;;;7.63;5.53;;;7.10;6.00;;;;;;4993182;28;20489;-70
2024/01/31 05:53:33;;;;;;;7.70;6.03;;;7.10;5.60;;;;;;4992778;28;20514;-70
2024/01/31 05:55:59;;;;;;;12.70;6.10;;;7.10;5.50;;;;;;4991944;28;20293;-70
2024/01/31 05:58:24;;;;;;;9.40;6.40;;;7.00;5.90;;;;;;4993270;28;20208;-69
2024/01/31 06:00:50;;;;;;;7.80;5.73;;;6.90;6.90;;;;;;4992212;28;20189;-70
2024/01/31 06:03:15;;;;;;;8.73;6.17;;;6.90;7.80;;;;;;4993336;28;20179;-69
2024/01/31 06:05:42;;;;;;;10.87;6.47;;;6.80;7.90;;;;;;4993067;28;20173;-69
2024/01/31 06:08:07;;;;;;;11.67;6.43;;;6.70;8.30;;;;;;4992901;28;20216;-69
2024/01/31 06:10:33;;;;;;;10.60;6.43;;;6.70;8.80;;;;;;4993192;28;20421;-69
2024/01/31 06:12:59;;;;;;;8.83;6.37;;;6.60;9.30;;;;;;4993110;28;20678;-69
2024/01/31 06:15:25;;;;;;;10.43;6.87;;;6.60;9.50;;;;;;4992921;28;20653;-69
2024/01/31 06:17:51;;;;;;;9.43;6.90;;;6.60;9.50;;;;;;4993350;28;20217;-69
2024/01/31 06:20:16;;;;;;;9.10;8.23;;;6.60;10.20;;;;;;4992631;28;20429;-69
2024/01/31 06:22:42;;;;;;;17.23;8.33;;;6.60;11.30;;;;;;4992923;28;20193;-69
2024/01/31 06:25:07;;;;;;;10.30;7.57;;;6.60;10.20;;;;;;4993239;28;20260;-69
2024/01/31 06:27:35;;;;;;;10.10;7.83;;;6.60;10.20;;;;;;4993035;28;20185;-68
2024/01/31 06:30:00;;;;;;;11.53;7.80;;;6.70;10.00;;;;;;4993149;28;20177;-69
2024/01/31 06:32:32;;;;;;;9.63;7.20;;;6.70;10.00;;;;;;4993486;28;20459;-69
2024/01/31 06:34:58;;;;;;;10.53;7.53;;;6.80;10.20;;;;;;4993293;28;20270;-69
2024/01/31 06:37:23;;;;;;;12.80;8.70;;;6.70;10.50;;;;;;4992609;28;20532;-69
2024/01/31 06:39:49;;;;;;;10.20;6.90;;;6.80;9.10;;;;;;4991486;28;20452;-69
2024/01/31 06:42:14;;;;;;;8.00;7.00;;;6.80;8.50;;;;;;4993215;28;20175;-69
2024/01/31 06:44:40;;;;;;;7.80;6.23;;;6.90;8.40;;;;;;4991358;28;20178;-69
2024/01/31 06:47:05;;;;;;;10.40;6.60;;;6.90;8.40;;;;;;4992555;28;20178;-68
2024/01/31 06:49:31;;;;;;;8.40;6.93;;;6.90;8.20;;;;;;4992780;28;20201;-68
2024/01/31 06:51:57;;;;;;;10.30;7.20;;;6.90;7.90;;;;;;4992670;28;20182;-68
2024/01/31 06:54:23;;;;;;;9.33;5.23;;;7.00;7.80;;;;;;4993364;28;20421;-69
2024/01/31 06:56:48;;;;;;;10.03;6.97;;;7.00;7.00;;;;;;4992449;28;20186;-69
2024/01/31 06:59:14;;;;;;;9.60;6.70;;;7.00;7.20;;;;;;4993212;28;20213;-69
2024/01/31 07:01:40;;;;;;;9.97;7.00;;;7.00;7.60;;;;;;4992515;28;20413;-69
2024/01/31 07:04:05;;;;;;;10.03;5.90;;;7.00;7.70;;;;;;4992235;28;20182;-70
2024/01/31 07:06:31;;;;;;;10.90;6.60;;;7.00;7.70;;;;;;4992338;28;20191;-69
2024/01/31 07:08:56;;;;;;;9.37;6.43;;;7.00;7.50;;;;;;4993276;28;20403;-69
2024/01/31 07:11:22;;;;;;;10.53;7.13;;;7.00;8.20;;;;;;4992751;28;20228;-68
2024/01/31 07:13:47;;;;;;;7.63;5.63;;;7.00;7.40;;;;;;4993218;28;20179;-68
2024/01/31 07:16:14;;;;;;;8.73;5.83;;;7.10;8.20;;;;;;4992442;28;20625;-70
2024/01/31 07:18:43;;;;;;;7.80;6.33;;;7.10;7.60;;;;;;4992568;28;20210;-69
2024/01/31 07:21:09;;;;;;;8.80;7.10;;;7.20;7.30;;;;;;4992550;28;20764;-70
2024/01/31 07:23:36;;;;;;;10.67;7.63;;;7.10;6.80;;;;;;4992856;28;20438;-70
2024/01/31 07:26:01;;;;;;;8.17;7.20;;;7.00;7.10;;;;;;4992500;28;20444;-71
2024/01/31 07:28:27;;;;;;;11.33;8.90;;;7.00;8.00;;;;;;4992590;28;20433;-70
2024/01/31 07:30:53;;;;;;;12.97;8.60;;;7.00;8.50;;;;;;4992472;28;20563;-70
2024/01/31 07:33:21;;;;;;;9.80;7.43;;;7.10;8.10;;;;;;4992099;28;20416;-69
2024/01/31 07:35:47;;;;;;;10.47;8.30;;;7.20;7.60;;;;;;4991939;28;20188;-70
2024/01/31 07:38:12;;;;;;;11.30;8.90;;;7.30;7.40;;;;;;4992007;28;20462;-70
2024/01/31 07:40:38;;;;;;;14.53;8.33;;;7.40;7.30;;;;;;4992243;28;20179;-69
2024/01/31 07:43:04;;;;;;;11.80;9.47;;;7.50;6.70;;;;;;4991493;28;20235;-68
2024/01/31 07:45:29;;;;;;;12.93;9.80;;;7.50;6.00;;;;;;4992226;28;20203;-69
2024/01/31 07:47:56;;;;;;;8.97;7.70;;;7.70;4.90;;;;;;4992043;28;20791;-69
2024/01/31 07:50:22;;;;;;;11.10;8.60;;;7.60;4.40;;;;;;4992140;28;20331;-69
2024/01/31 07:52:48;;;;;;;13.97;8.20;;;7.60;4.40;;;;;;4992015;28;20436;-68
2024/01/31 07:55:14;;;;;;;9.70;7.30;;;7.60;4.30;;;;;;4990712;28;20437;-69
2024/01/31 07:57:39;;;;;;;13.47;8.03;;;7.70;4.50;;;;;;4991941;28;20484;-69
2024/01/31 08:00:06;;;;;;;12.20;8.87;;;7.80;4.00;;;;;;4991833;28;20707;-68
2024/01/31 08:02:32;;;;;;;9.20;7.97;;;7.70;3.70;;;;;;4992522;28;20784;-69
2024/01/31 08:04:58;;;;;;;10.90;8.40;;;7.60;3.60;;;;;;4992045;28;20465;-69
2024/01/31 08:07:24;;;;;;;9.90;8.90;;;7.70;3.70;;;;;;4991922;28;20417;-69
2024/01/31 08:09:50;;;;;;;11.97;8.07;;;7.90;2.30;;;;;;4992270;28;20678;-69
2024/01/31 08:12:15;;;;;;;10.57;7.40;;;8.00;2.40;;;;;;4991190;28;20462;-69
2024/01/31 08:14:41;;;;;;;10.23;8.40;;;8.10;2.40;;;;;;4992299;28;20184;-69
2024/01/31 08:17:07;;;;;;;13.13;8.17;;;8.30;1.60;;;;;;4995302;28;20328;-70
2024/01/31 08:19:34;;;;;;;11.10;9.57;;;8.40;1.00;;;;;;4995426;28;20558;-69
2024/01/31 08:21:59;;;;;;;12.50;8.70;;;8.60;1.00;;;;;;4995188;28;20511;-69
2024/01/31 08:24:25;;;;;;;12.23;9.30;;;8.60;1.00;;;;;;4995494;28;20955;-69
2024/01/31 08:26:51;;;;;;;10.80;8.17;;;8.60;1.00;;;;;;4995142;28;20165;-70
2024/01/31 08:29:16;;;;;;;11.10;8.17;;;8.60;1.00;;;;;;4995090;28;20188;-69
2024/01/31 08:31:42;;;;;;;11.23;8.43;;;8.70;1.00;;;;;;4994919;28;20492;-69
2024/01/31 08:34:07;;;;;;;12.40;8.73;;;8.70;1.00;;;;;;4995373;28;20196;-69
2024/01/31 08:36:33;;;;;;;12.83;7.50;;;8.80;1.00;;;;;;4993932;28;20595;-69
2024/01/31 08:38:59;;;;;;;10.83;8.83;;;8.80;1.00;;;;;;4995335;28;20203;-69
2024/01/31 08:41:25;;;;;;;12.13;9.33;;;8.80;1.00;;;;;;4995652;28;20199;-69
2024/01/31 08:43:51;;;;;;;18.10;11.13;;;8.80;1.00;;;;;;4997284;28;20490;-68
2024/01/31 08:46:16;;;;;;;13.60;8.43;;;8.80;1.00;;;;;;4994979;28;20276;-69
2024/01/31 08:48:42;;;;;;;10.50;8.30;;;8.80;1.00;;;;;;4995819;28;20435;-68
2024/01/31 08:51:08;;;;;;;11.43;8.60;;;8.80;1.00;;;;;;4995613;28;20181;-69
2024/01/31 08:53:33;;;;;;;10.87;8.70;;;8.70;1.00;;;;;;5006282;28;20179;-69
2024/01/31 08:55:59;;;;;;;17.53;9.90;;;8.60;1.00;;;;;;5010862;28;20427;-70
2024/01/31 08:58:24;;;;;;;12.40;10.33;;;8.60;1.00;;;;;;5009438;28;20235;-70
2024/01/31 09:00:50;;;;;;;12.70;9.50;;;8.60;1.00;;;;;;5011884;28;20678;-70
2024/01/31 09:03:16;;;;;;;10.80;8.63;;;8.60;1.00;;;;;;5002574;28;20179;-69
2024/01/31 09:05:41;;;;;;;15.47;9.63;;;8.50;1.00;;;;;;4995218;28;20184;-69
2024/01/31 09:08:06;;;;;;;10.77;9.40;;;8.50;1.00;;;;;;4995958;28;20220;-68
2024/01/31 09:10:32;;;;;;;17.10;9.70;;;8.50;1.00;;;;;;4997542;28;20219;-69
2024/01/31 09:13:01;;;;;;;11.60;8.43;;;8.60;1.00;;;;;;4997673;28;20193;-69
2024/01/31 09:15:29;;;;;;;9.30;7.77;;;8.50;1.00;;;;;;4998728;28;20688;-69
2024/01/31 09:17:55;;;;;;;8.97;7.30;;;8.60;1.00;;;;;;4997495;28;20998;-70
2024/01/31 09:20:20;;;;;;;10.50;8.90;;;8.80;1.00;;;;;;4997617;28;20478;-70
2024/01/31 09:22:46;;;;;;;13.37;9.57;;;9.00;1.00;;;;;;4996550;28;20177;-70
2024/01/31 09:25:14;;;;;;;10.20;9.10;;;9.20;1.00;;;;;;4995042;28;20211;-68
2024/01/31 09:27:40;;;;;;;9.93;8.10;;;9.40;1.00;;;;;;4994147;28;20581;-69
2024/01/31 09:30:07;;;;;;;10.17;7.90;;;9.60;1.00;;;;;;4996082;28;20546;-70
2024/01/31 09:32:33;;;;;;;10.90;8.20;;;9.80;1.00;;;;;;4994739;28;20188;-68
2024/01/31 09:34:58;;;;;;;12.03;8.40;;;10.00;1.00;;;;;;4994302;28;20420;-69
2024/01/31 09:37:24;;;;;;;12.37;8.40;;;10.10;1.00;;;;;;4993971;28;20196;-70
2024/01/31 09:39:54;;;;;;;10.83;8.67;;;10.30;1.00;;;;;;4994210;28;20188;-70
2024/01/31 09:42:19;;;;;;;14.00;8.33;;;10.40;1.00;;;;;;4994160;28;20173;-70
2024/01/31 09:44:45;;;;;;;11.30;8.03;;;10.50;1.00;;;;;;4992873;28;20754;-70
2024/01/31 09:47:12;;;;;;;11.37;7.73;;;10.60;1.00;;;;;;4994335;28;20263;-70
2024/01/31 09:49:38;;;;;;;9.87;8.20;;;10.60;1.00;;;;;;4993956;28;20451;-70
2024/01/31 09:52:05;;;;;;;12.03;8.40;;;10.60;1.00;;;;;;4993716;28;20919;-71
2024/01/31 09:54:31;;;;;;;11.90;9.07;;;10.70;1.00;;;;;;4993850;28;20255;-69
2024/01/31 09:56:57;;;;;;;13.47;8.10;;;10.80;1.00;;;;;;4993559;28;20554;-69
2024/01/31 09:59:27;;;;;;;14.13;8.40;;;10.90;1.00;;;;;;4994318;28;20254;-70
2024/01/31 10:01:56;;;;;;;10.50;7.77;;;11.10;1.00;;;;;;4994338;28;20424;-69
2024/01/31 10:04:21;;;;;;;10.47;7.93;;;11.30;1.00;;;;;;4994958;28;20448;-70
2024/01/31 10:06:47;;;;;;;15.23;9.37;;;11.40;1.00;;;;;;4995092;28;20421;-70
2024/01/31 10:09:13;;;;;;;9.77;8.53;;;11.60;1.00;;;;;;4995638;28;20216;-69
2024/01/31 10:11:44;;;;;;;9.63;8.63;;;11.80;1.00;;;;;;4995825;28;20432;-69
2024/01/31 10:14:11;;;;;;;15.73;8.90;;;11.90;1.00;;;;;;4995000;28;20223;-69
2024/01/31 10:16:37;;;;;;;12.47;9.03;;;12.00;1.00;;;;;;4994987;28;20456;-70
2024/01/31 10:19:02;;;;;;;16.80;8.60;;;12.00;1.00;;;;;;4995273;28;20508;-71
2024/01/31 10:21:28;;;;;;;11.80;7.37;;;12.10;1.00;;;;;;4994944;28;20210;-68
2024/01/31 10:24:15;;;;;;;11.43;7.97;;;12.10;1.00;;;;;;4995102;28;20181;-70
2024/01/31 10:26:41;;;;;;;12.53;8.80;;;12.10;1.00;;;;;;4993781;28;20279;-69
2024/01/31 10:29:07;;;;;;;11.33;8.23;;;12.10;1.00;;;;;;4993665;28;20527;-69
2024/01/31 10:31:34;;;;;;;16.20;8.57;;;12.10;1.00;;;;;;4994329;28;20195;-69
2024/01/31 10:34:01;;;;;;;11.77;8.50;;;12.20;1.00;;;;;;4994141;28;20243;-69
2024/01/31 10:36:28;;;;;;;10.00;8.93;;;12.30;1.00;;;;;;4994057;28;20788;-70
2024/01/31 10:38:54;;;;;;;11.33;7.70;;;12.20;1.00;;;;;;4993683;28;20459;-69
2024/01/31 10:41:21;;;;;;;9.93;7.53;;;12.20;1.00;;;;;;4994368;28;20433;-68
2024/01/31 10:43:49;;;;;;;11.10;8.03;;;12.20;1.00;;;;;;4993316;28;20179;-69
2024/01/31 10:46:15;;;;;;;9.00;8.10;;;12.30;1.00;;;;;;4993183;28;20423;-71
2024/01/31 10:48:41;;;;;;;7.90;7.20;;;12.50;1.00;;;;;;4992674;28;20453;-71
2024/01/31 10:51:09;;;;;;;15.50;8.10;;;12.50;1.00;;;;;;4994008;28;20415;-69
2024/01/31 10:53:35;;;;;;;10.50;8.10;;;12.70;1.00;;;;;;4992837;28;20200;-71
2024/01/31 10:56:03;;;;;;;11.80;7.50;;;12.80;1.00;;;;;;4992753;28;20470;-70
2024/01/31 10:58:29;;;;;;;9.43;7.50;;;13.00;1.00;;;;;;4992757;28;20994;-69
2024/01/31 11:00:55;;;;;;;10.33;9.27;;;13.00;1.00;;;;;;4991805;28;20545;-69
2024/01/31 11:03:23;;;;;;;8.37;7.57;;;13.00;1.00;;;;;;4992867;28;20822;-69
2024/01/31 11:05:51;;;;;;;9.73;7.00;;;13.00;1.00;;;;;;4992421;28;20181;-70
2024/01/31 11:08:21;;;;;;;9.87;7.70;;;13.00;1.00;;;;;;4990919;28;20464;-69
2024/01/31 11:10:47;;;;;;;10.37;9.00;;;12.80;1.00;;;;;;4992670;28;20428;-69
2024/01/31 11:13:13;;;;;;;12.27;7.60;;;12.90;1.00;;;;;;4992514;28;20428;-69
2024/01/31 11:15:40;;;;;;;15.33;8.17;;;12.90;1.00;;;;;;4992316;28;21043;-70
2024/01/31 11:18:09;;;;;;;9.20;7.80;;;12.90;1.00;;;;;;4992026;28;20562;-69
2024/01/31 11:20:39;;;;;;;13.13;8.80;;;12.80;1.00;;;;;;4992642;28;20428;-70
2024/01/31 11:23:05;;;;;;;11.70;8.77;;;13.00;1.00;;;;;;4992477;28;20417;-72
2024/01/31 11:25:36;;;;;;;10.43;9.07;;;12.90;1.00;;;;;;4992152;28;21179;-69
2024/01/31 11:28:05;;;;;;;12.97;8.03;;;12.90;1.00;;;;;;4992753;28;20535;-70
2024/01/31 11:30:31;;;;;;;13.93;8.33;;;12.90;1.00;;;;;;4992298;28;20433;-69
2024/01/31 11:32:57;;;;;;;15.60;9.13;;;13.10;1.00;;;;;;4992229;28;20429;-70
2024/01/31 11:35:25;;;;;;;16.63;7.83;;;13.20;1.00;;;;;;4992311;28;20550;-69
2024/01/31 11:37:51;;;;;;;9.67;7.37;;;13.30;1.00;;;;;;4991843;28;20471;-69
2024/01/31 11:40:19;;;;;;;9.90;7.33;;;13.40;1.00;;;;;;4992040;28;20506;-68
2024/01/31 11:42:45;;;;;;;10.20;8.40;;;13.20;1.00;;;;;;4992405;28;20523;-70
2024/01/31 11:45:10;;;;;;;9.50;7.97;;;13.00;1.00;;;;;;4992207;28;20415;-69
2024/01/31 11:47:37;;;;;;;10.07;7.53;;;13.20;1.00;;;;;;4991788;28;20438;-70
2024/01/31 11:50:04;;;;;;;13.73;8.47;;;13.40;1.00;;;;;;4993083;28;20213;-69
2024/01/31 11:53:09;;;;;;;;;;;;;;;;;;;;;
2024/01/31 11:55:47;;;;;;;9.10;8.13;;;13.60;1.00;;;;;;4987138;28;20431;-70
2024/01/31 11:58:13;;;;;;;9.00;6.90;;;13.30;1.00;;;;;;4996279;28;20463;-69
2024/01/31 12:00:38;;;;;;;10.80;7.57;;;13.30;1.00;;;;;;4995710;28;20509;-70
2024/01/31 12:03:07;;;;;;;9.83;7.53;;;13.30;1.00;;;;;;4996244;28;20187;-70
2024/01/31 12:05:33;;;;;;;18.50;7.07;;;13.30;1.00;;;;;;4996001;28;20173;-70
2024/01/31 12:08:07;;;;;;;10.97;8.00;;;13.20;1.00;;;;;;4995485;28;20516;-70
2024/01/31 12:10:33;;;;;;;13.10;8.40;;;13.20;1.00;;;;;;4996710;28;20180;-68
2024/01/31 12:13:00;;;;;;;11.57;7.37;;;13.20;1.00;;;;;;4995648;28;20887;-70
2024/01/31 12:15:29;;;;;;;11.83;7.67;;;13.40;1.00;;;;;;4996774;28;21027;-69
2024/01/31 12:18:00;;;;;;;16.00;8.00;;;13.50;1.00;;;;;;4996201;28;20502;-70
2024/01/31 12:20:26;;;;;;;10.27;6.20;;;13.70;1.00;;;;;;4996073;28;20418;-70
2024/01/31 12:22:51;;;;;;;11.83;6.93;;;13.40;1.00;;;;;;4996196;28;20478;-70
2024/01/31 12:25:17;;;;;;;8.50;7.60;;;13.40;1.00;;;;;;4995317;28;20213;-70
2024/01/31 12:27:54;;;;;;;10.40;7.20;;;13.20;1.00;;;;;;4995451;28;20207;-71
2024/01/31 12:30:20;;;;;;;7.73;6.80;;;13.10;1.00;;;;;;4995491;28;20192;-70
2024/01/31 12:32:45;;;;;;;12.97;8.70;;;13.30;1.00;;;;;;4995753;28;20485;-70
2024/01/31 12:35:20;;;;;;;8.67;6.87;;;13.30;1.00;;;;;;4995773;28;20214;-71
2024/01/31 12:37:46;;;;;;;12.63;8.53;;;13.30;1.00;;;;;;4996047;28;20755;-70
2024/01/31 12:40:12;;;;;;;9.87;7.23;;;13.40;1.00;;;;;;4995417;28;20420;-70
2024/01/31 12:42:40;;;;;;;7.80;6.80;;;13.60;1.00;;;;;;4995233;28;20831;-68
2024/01/31 12:45:09;;;;;;;9.60;7.60;;;13.70;1.00;;;;;;4995645;28;20181;-71
2024/01/31 12:48:04;;;;;;;8.93;8.03;;;13.80;1.00;;;;;;4993754;28;20481;-71
2024/01/31 12:50:37;;;;;;;9.23;6.90;;;13.60;1.00;;;;;;4994902;28;20503;-69
2024/01/31 12:53:02;;;;;;;9.40;8.00;;;13.50;1.00;;;;;;4993339;28;20435;-70
2024/01/31 12:55:28;;;;;;;14.43;7.73;;;13.30;1.00;;;;;;4994973;28;20514;-70
2024/01/31 12:57:56;;;;;;;10.40;8.00;;;13.20;1.00;;;;;;4994967;28;20288;-70